sensor_id;sensor_type;location;lat;lon;timestamp;pressure;altitude;pressure_sealevel;temperature;humidity
39267;BME280;24967;51.154;13.812;2022-12-11T00:01:13;98816.50;;;1.52;75.68
39267;BME280;24967;51.154;13.812;2022-12-11T00:03:40;98820.03;;;1.40;75.11
39267;BME280;24967;51.154;13.812;2022-12-11T00:06:09;98827.47;;;1.33;75.54
39267;BME280;24967;51.154;13.812;2022-12-11T00:08:36;98817.66;;;1.48;75.44
39267;BME280;24967;51.154;13.812;2022-12-11T00:11:03;98828.66;;;1.53;75.73
39267;BME280;24967;51.154;13.812;2022-12-11T00:13:29;98822.06;;;1.48;75.91
39267;BME280;24967;51.154;13.812;2022-12-11T00:15:56;98820.94;;;1.39;75.85
39267;BME280;24967;51.154;13.812;2022-12-11T00:18:23;98820.09;;;1.51;75.45
39267;BME280;24967;51.154;13.812;2022-12-11T00:20:49;98824.22;;;1.43;75.72
39267;BME280;24967;51.154;13.812;2022-12-11T00:23:17;98821.03;;;1.50;75.40
39267;BME280;24967;51.154;13.812;2022-12-11T00:25:44;98824.88;;;1.57;75.33
39267;BME280;24967;51.154;13.812;2022-12-11T00:28:11;98829.56;;;1.65;75.53
39267;BME280;24967;51.154;13.812;2022-12-11T00:30:37;98830.22;;;1.56;75.17
39267;BME280;24967;51.154;13.812;2022-12-11T00:33:04;98832.84;;;1.56;74.63
39267;BME280;24967;51.154;13.812;2022-12-11T00:35:30;98843.00;;;1.60;75.12
39267;BME280;24967;51.154;13.812;2022-12-11T00:37:57;98840.03;;;1.65;74.64
39267;BME280;24967;51.154;13.812;2022-12-11T00:40:25;98838.38;;;1.64;74.67
39267;BME280;24967;51.154;13.812;2022-12-11T00:42:51;98842.59;;;1.54;74.40
39267;BME280;24967;51.154;13.812;2022-12-11T00:45:17;98838.38;;;1.64;74.29
39267;BME280;24967;51.154;13.812;2022-12-11T00:47:44;98837.69;;;1.73;74.11
39267;BME280;24967;51.154;13.812;2022-12-11T00:50:10;98836.41;;;1.55;74.60
39267;BME280;24967;51.154;13.812;2022-12-11T00:52:37;98839.91;;;1.43;74.33
39267;BME280;24967;51.154;13.812;2022-12-11T00:55:04;98837.63;;;1.38;74.79
39267;BME280;24967;51.154;13.812;2022-12-11T00:57:32;98834.03;;;1.39;74.88
39267;BME280;24967;51.154;13.812;2022-12-11T00:59:59;98827.88;;;1.40;74.71
39267;BME280;24967;51.154;13.812;2022-12-11T01:02:25;98835.38;;;1.45;74.15
39267;BME280;24967;51.154;13.812;2022-12-11T01:04:52;98828.75;;;1.28;74.91
39267;BME280;24967;51.154;13.812;2022-12-11T01:07:18;98826.84;;;1.30;75.07
39267;BME280;24967;51.154;13.812;2022-12-11T01:09:44;98826.56;;;1.22;75.35
39267;BME280;24967;51.154;13.812;2022-12-11T01:12:29;98841.75;;;1.17;76.01
39267;BME280;24967;51.154;13.812;2022-12-11T01:14:56;98835.03;;;1.25;75.41
39267;BME280;24967;51.154;13.812;2022-12-11T01:17:23;98835.81;;;1.02;75.57
39267;BME280;24967;51.154;13.812;2022-12-11T01:19:49;98838.31;;;1.16;75.67
39267;BME280;24967;51.154;13.812;2022-12-11T01:22:18;98836.22;;;1.08;75.38
39267;BME280;24967;51.154;13.812;2022-12-11T01:24:44;98836.06;;;0.86;75.62
39267;BME280;24967;51.154;13.812;2022-12-11T01:27:11;98840.00;;;1.04;76.09
39267;BME280;24967;51.154;13.812;2022-12-11T01:29:37;98845.81;;;1.21;75.61
39267;BME280;24967;51.154;13.812;2022-12-11T01:32:05;98840.09;;;1.16;75.21
39267;BME280;24967;51.154;13.812;2022-12-11T01:34:32;98840.06;;;1.28;75.58
39267;BME280;24967;51.154;13.812;2022-12-11T01:36:58;98842.78;;;1.27;75.13
39267;BME280;24967;51.154;13.812;2022-12-11T01:39:25;98839.09;;;0.93;75.00
39267;BME280;24967;51.154;13.812;2022-12-11T01:41:55;98841.59;;;0.81;75.41
39267;BME280;24967;51.154;13.812;2022-12-11T01:47:10;98836.88;;;0.99;75.98
39267;BME280;24967;51.154;13.812;2022-12-11T01:49:37;98849.53;;;1.05;75.13
39267;BME280;24967;51.154;13.812;2022-12-11T01:52:05;98842.34;;;0.83;75.15
39267;BME280;24967;51.154;13.812;2022-12-11T01:54:32;98845.84;;;1.08;75.20
39267;BME280;24967;51.154;13.812;2022-12-11T01:57:00;98844.28;;;1.05;75.03
39267;BME280;24967;51.154;13.812;2022-12-11T01:59:29;98833.41;;;0.99;74.14
39267;BME280;24967;51.154;13.812;2022-12-11T02:01:58;98830.81;;;0.99;74.72
39267;BME280;24967;51.154;13.812;2022-12-11T02:04:28;98840.09;;;1.03;74.07
39267;BME280;24967;51.154;13.812;2022-12-11T02:06:55;98838.22;;;1.05;74.64
39267;BME280;24967;51.154;13.812;2022-12-11T02:09:22;98842.63;;;1.04;74.52
39267;BME280;24967;51.154;13.812;2022-12-11T02:11:51;98842.94;;;1.12;74.19
39267;BME280;24967;51.154;13.812;2022-12-11T02:14:23;98831.72;;;1.10;74.30
39267;BME280;24967;51.154;13.812;2022-12-11T02:16:54;98834.22;;;1.12;74.26
39267;BME280;24967;51.154;13.812;2022-12-11T02:19:30;98840.16;;;1.27;74.31
39267;BME280;24967;51.154;13.812;2022-12-11T02:21:59;98840.13;;;1.40;73.20
39267;BME280;24967;51.154;13.812;2022-12-11T02:24:31;98835.47;;;1.19;73.73
39267;BME280;24967;51.154;13.812;2022-12-11T02:29:47;98827.44;;;1.09;73.90
39267;BME280;24967;51.154;13.812;2022-12-11T02:32:16;98830.16;;;1.08;73.73
39267;BME280;24967;51.154;13.812;2022-12-11T02:34:46;98827.94;;;1.14;73.06
39267;BME280;24967;51.154;13.812;2022-12-11T02:37:18;98831.59;;;1.25;73.25
39267;BME280;24967;51.154;13.812;2022-12-11T02:39:46;98825.69;;;1.34;72.97
39267;BME280;24967;51.154;13.812;2022-12-11T02:42:14;98822.25;;;1.33;72.94
39267;BME280;24967;51.154;13.812;2022-12-11T02:44:41;98820.94;;;1.02;73.08
39267;BME280;24967;51.154;13.812;2022-12-11T02:47:11;98819.31;;;0.88;73.55
39267;BME280;24967;51.154;13.812;2022-12-11T02:49:39;98831.81;;;1.09;73.41
39267;BME280;24967;51.154;13.812;2022-12-11T02:52:07;98827.31;;;1.11;73.37
39267;BME280;24967;51.154;13.812;2022-12-11T02:54:35;98829.97;;;1.35;73.20
39267;BME280;24967;51.154;13.812;2022-12-11T02:57:23;98827.81;;;1.29;72.99
39267;BME280;24967;51.154;13.812;2022-12-11T02:59:51;98833.47;;;1.23;72.64
39267;BME280;24967;51.154;13.812;2022-12-11T03:02:18;98821.94;;;1.25;72.54
39267;BME280;24967;51.154;13.812;2022-12-11T03:04:45;98829.19;;;1.22;72.75
39267;BME280;24967;51.154;13.812;2022-12-11T03:07:13;98826.47;;;1.10;72.58
39267;BME280;24967;51.154;13.812;2022-12-11T03:09:41;98825.22;;;1.16;72.72
39267;BME280;24967;51.154;13.812;2022-12-11T03:12:08;98839.88;;;1.19;72.58
39267;BME280;24967;51.154;13.812;2022-12-11T03:14:36;98830.94;;;0.97;73.17
39267;BME280;24967;51.154;13.812;2022-12-11T03:17:04;98831.31;;;1.04;72.89
39267;BME280;24967;51.154;13.812;2022-12-11T03:19:35;98830.06;;;1.09;72.92
39267;BME280;24967;51.154;13.812;2022-12-11T03:22:05;98826.84;;;1.30;72.56
39267;BME280;24967;51.154;13.812;2022-12-11T03:24:34;98822.50;;;1.05;73.03
39267;BME280;24967;51.154;13.812;2022-12-11T03:27:05;98829.34;;;0.95;73.43
39267;BME280;24967;51.154;13.812;2022-12-11T03:29:34;98831.63;;;0.99;73.19
39267;BME280;24967;51.154;13.812;2022-12-11T03:32:03;98835.28;;;0.97;73.10
39267;BME280;24967;51.154;13.812;2022-12-11T03:34:36;98831.63;;;0.99;73.02
39267;BME280;24967;51.154;13.812;2022-12-11T03:37:04;98830.06;;;0.97;73.04
39267;BME280;24967;51.154;13.812;2022-12-11T03:39:34;98831.03;;;0.83;72.47
39267;BME280;24967;51.154;13.812;2022-12-11T03:42:03;98830.69;;;0.87;72.84
39267;BME280;24967;51.154;13.812;2022-12-11T03:44:31;98828.94;;;0.88;72.84
39267;BME280;24967;51.154;13.812;2022-12-11T03:47:00;98837.94;;;0.71;73.03
39267;BME280;24967;51.154;13.812;2022-12-11T03:49:28;98829.47;;;0.67;73.40
39267;BME280;24967;51.154;13.812;2022-12-11T03:51:57;98831.13;;;0.94;72.98
39267;BME280;24967;51.154;13.812;2022-12-11T03:54:25;98831.34;;;0.78;72.99
39267;BME280;24967;51.154;13.812;2022-12-11T03:56:53;98829.34;;;0.95;73.25
39267;BME280;24967;51.154;13.812;2022-12-11T03:59:21;98833.31;;;0.87;72.44
39267;BME280;24967;51.154;13.812;2022-12-11T04:01:47;98836.78;;;0.62;72.90
39267;BME280;24967;51.154;13.812;2022-12-11T04:04:14;98830.94;;;0.72;73.14
39267;BME280;24967;51.154;13.812;2022-12-11T04:06:40;98824.94;;;0.95;72.98
39267;BME280;24967;51.154;13.812;2022-12-11T04:09:08;98832.59;;;0.85;72.63
39267;BME280;24967;51.154;13.812;2022-12-11T04:11:34;98831.00;;;0.96;72.56
39267;BME280;24967;51.154;13.812;2022-12-11T04:14:01;98828.00;;;0.89;72.11
39267;BME280;24967;51.154;13.812;2022-12-11T04:16:45;98828.72;;;0.78;72.82
39267;BME280;24967;51.154;13.812;2022-12-11T04:19:11;98827.91;;;0.78;72.95
39267;BME280;24967;51.154;13.812;2022-12-11T04:21:55;98829.53;;;1.04;72.78
39267;BME280;24967;51.154;13.812;2022-12-11T04:24:40;98836.88;;;0.99;72.54
39267;BME280;24967;51.154;13.812;2022-12-11T04:27:07;98836.38;;;0.81;72.31
39267;BME280;24967;51.154;13.812;2022-12-11T04:29:33;98832.88;;;0.94;72.61
39267;BME280;24967;51.154;13.812;2022-12-11T04:32:00;98832.72;;;0.58;72.60
39267;BME280;24967;51.154;13.812;2022-12-11T04:34:26;98834.38;;;0.98;72.14
39267;BME280;24967;51.154;13.812;2022-12-11T04:36:53;98832.59;;;0.98;72.11
39267;BME280;24967;51.154;13.812;2022-12-11T04:39:19;98836.69;;;0.77;72.06
39267;BME280;24967;51.154;13.812;2022-12-11T04:41:47;98834.09;;;0.64;72.58
39267;BME280;24967;51.154;13.812;2022-12-11T04:44:13;98826.63;;;0.32;74.30
39267;BME280;24967;51.154;13.812;2022-12-11T04:46:39;98828.53;;;0.43;74.47
39267;BME280;24967;51.154;13.812;2022-12-11T04:49:06;98822.97;;;0.60;73.95
39267;BME280;24967;51.154;13.812;2022-12-11T04:51:34;98822.88;;;0.75;73.20
39267;BME280;24967;51.154;13.812;2022-12-11T04:54:00;98820.88;;;0.91;73.05
39267;BME280;24967;51.154;13.812;2022-12-11T04:56:26;98820.88;;;0.91;73.18
39267;BME280;24967;51.154;13.812;2022-12-11T04:58:54;98814.91;;;0.89;72.89
39267;BME280;24967;51.154;13.812;2022-12-11T05:01:21;98821.13;;;0.50;74.00
39267;BME280;24967;51.154;13.812;2022-12-11T05:03:48;98820.06;;;0.52;74.08
39267;BME280;24967;51.154;13.812;2022-12-11T05:06:14;98822.75;;;0.63;74.64
39267;BME280;24967;51.154;13.812;2022-12-11T05:08:41;98811.91;;;0.44;74.76
39267;BME280;24967;51.154;13.812;2022-12-11T05:11:09;98814.50;;;0.44;75.03
39267;BME280;24967;51.154;13.812;2022-12-11T05:13:36;98809.41;;;0.42;75.14
39267;BME280;24967;51.154;13.812;2022-12-11T05:16:05;98814.53;;;0.31;74.98
39267;BME280;24967;51.154;13.812;2022-12-11T05:18:31;98809.38;;;0.30;75.31
39267;BME280;24967;51.154;13.812;2022-12-11T05:20:58;98807.78;;;0.14;75.38
39267;BME280;24967;51.154;13.812;2022-12-11T05:23:25;98803.94;;;0.20;75.96
39267;BME280;24967;51.154;13.812;2022-12-11T05:25:52;98805.59;;;0.21;75.84
39267;BME280;24967;51.154;13.812;2022-12-11T05:28:19;98803.72;;;0.23;76.05
39267;BME280;24967;51.154;13.812;2022-12-11T05:30:45;98809.78;;;0.23;76.19
39267;BME280;24967;51.154;13.812;2022-12-11T05:33:13;98803.94;;;0.33;75.55
39267;BME280;24967;51.154;13.812;2022-12-11T05:35:45;98805.31;;;0.26;75.79
39267;BME280;24967;51.154;13.812;2022-12-11T05:38:11;98804.97;;;0.30;75.47
39267;BME280;24967;51.154;13.812;2022-12-11T05:40:38;98801.00;;;0.12;75.36
39267;BME280;24967;51.154;13.812;2022-12-11T05:43:04;98806.53;;;0.07;75.85
39267;BME280;24967;51.154;13.812;2022-12-11T05:45:30;98803.19;;;0.05;76.02
39267;BME280;24967;51.154;13.812;2022-12-11T05:47:57;98805.41;;;-0.29;77.49
39267;BME280;24967;51.154;13.812;2022-12-11T05:50:25;98800.84;;;-0.52;78.73
39267;BME280;24967;51.154;13.812;2022-12-11T05:52:51;98802.41;;;-0.50;79.26
39267;BME280;24967;51.154;13.812;2022-12-11T05:55:17;98794.44;;;-0.61;79.81
39267;BME280;24967;51.154;13.812;2022-12-11T05:57:44;98790.50;;;-0.27;79.21
39267;BME280;24967;51.154;13.812;2022-12-11T06:00:11;98795.00;;;-0.16;78.98
39267;BME280;24967;51.154;13.812;2022-12-11T06:02:37;98795.31;;;-0.75;80.05
39267;BME280;24967;51.154;13.812;2022-12-11T06:05:04;98794.56;;;-0.77;80.37
39267;BME280;24967;51.154;13.812;2022-12-11T06:07:32;98801.00;;;-0.68;80.98
39267;BME280;24967;51.154;13.812;2022-12-11T06:09:58;98796.91;;;-0.72;81.24
39267;BME280;24967;51.154;13.812;2022-12-11T06:12:24;98794.38;;;-0.74;81.20
39267;BME280;24967;51.154;13.812;2022-12-11T06:14:52;98789.53;;;-0.65;80.87
39267;BME280;24967;51.154;13.812;2022-12-11T06:17:18;98793.75;;;-0.50;80.26
39267;BME280;24967;51.154;13.812;2022-12-11T06:19:45;98795.53;;;-0.51;80.84
39267;BME280;24967;51.154;13.812;2022-12-11T06:22:11;98785.59;;;-0.46;80.48
39267;BME280;24967;51.154;13.812;2022-12-11T06:24:39;98800.75;;;-0.78;81.03
39267;BME280;24967;51.154;13.812;2022-12-11T06:27:06;98803.22;;;-0.62;80.93
39267;BME280;24967;51.154;13.812;2022-12-11T06:29:33;98801.16;;;-0.57;80.41
39267;BME280;24967;51.154;13.812;2022-12-11T06:31:59;98803.38;;;-0.92;81.27
39267;BME280;24967;51.154;13.812;2022-12-11T06:34:26;98803.16;;;-0.75;81.04
39267;BME280;24967;51.154;13.812;2022-12-11T06:36:52;98803.19;;;-0.89;81.41
39267;BME280;24967;51.154;13.812;2022-12-11T06:39:19;98800.00;;;-0.94;81.88
39267;BME280;24967;51.154;13.812;2022-12-11T06:41:46;98806.66;;;-0.61;81.00
39267;BME280;24967;51.154;13.812;2022-12-11T06:44:13;98808.19;;;-0.72;80.81
39267;BME280;24967;51.154;13.812;2022-12-11T06:46:39;98801.97;;;-0.83;81.12
39267;BME280;24967;51.154;13.812;2022-12-11T06:49:06;98798.16;;;-0.92;81.08
39267;BME280;24967;51.154;13.812;2022-12-11T06:51:32;98808.16;;;-1.27;81.72
39267;BME280;24967;51.154;13.812;2022-12-11T06:53:58;98813.19;;;-1.24;82.25
39267;BME280;24967;51.154;13.812;2022-12-11T06:56:25;98818.13;;;-1.20;82.20
39267;BME280;24967;51.154;13.812;2022-12-11T06:58:53;98818.97;;;-1.33;82.40
39267;BME280;24967;51.154;13.812;2022-12-11T07:01:21;98815.72;;;-1.66;83.85
39267;BME280;24967;51.154;13.812;2022-12-11T07:03:48;98813.84;;;-1.64;84.42
39267;BME280;24967;51.154;13.812;2022-12-11T07:06:17;98819.59;;;-1.73;85.03
39267;BME280;24967;51.154;13.812;2022-12-11T07:08:43;98818.81;;;-1.45;83.95
39267;BME280;24967;51.154;13.812;2022-12-11T07:11:11;98820.84;;;-1.50;83.35
39267;BME280;24967;51.154;13.812;2022-12-11T07:13:38;98821.19;;;-1.27;82.81
39267;BME280;24967;51.154;13.812;2022-12-11T07:16:08;98826.16;;;-1.23;82.89
39267;BME280;24967;51.154;13.812;2022-12-11T07:18:35;98828.47;;;-1.32;83.04
39267;BME280;24967;51.154;13.812;2022-12-11T07:21:01;98834.25;;;-1.27;83.21
39267;BME280;24967;51.154;13.812;2022-12-11T07:23:28;98829.75;;;-1.40;83.33
39267;BME280;24967;51.154;13.812;2022-12-11T07:25:54;98838.88;;;-1.61;83.72
39267;BME280;24967;51.154;13.812;2022-12-11T07:28:22;98829.22;;;-1.59;83.64
39267;BME280;24967;51.154;13.812;2022-12-11T07:30:48;98829.59;;;-1.36;82.59
39267;BME280;24967;51.154;13.812;2022-12-11T07:33:16;98838.44;;;-1.53;82.91
39267;BME280;24967;51.154;13.812;2022-12-11T07:35:43;98836.75;;;-1.40;82.79
39267;BME280;24967;51.154;13.812;2022-12-11T07:38:09;98836.75;;;-1.40;82.51
39267;BME280;24967;51.154;13.812;2022-12-11T07:40:35;98842.56;;;-1.21;81.80
39267;BME280;24967;51.154;13.812;2022-12-11T07:43:02;98836.38;;;-1.34;81.92
39267;BME280;24967;51.154;13.812;2022-12-11T07:45:28;98841.78;;;-1.23;81.40
39267;BME280;24967;51.154;13.812;2022-12-11T07:47:55;98835.53;;;-1.49;81.54
39267;BME280;24967;51.154;13.812;2022-12-11T07:50:22;98843.38;;;-1.63;81.77
39267;BME280;24967;51.154;13.812;2022-12-11T07:52:49;98851.16;;;-1.77;82.36
39267;BME280;24967;51.154;13.812;2022-12-11T07:55:15;98845.03;;;-1.62;82.05
39267;BME280;24967;51.154;13.812;2022-12-11T07:57:42;98843.38;;;-1.34;80.95
39267;BME280;24967;51.154;13.812;2022-12-11T08:00:09;98847.72;;;-1.78;82.04
39267;BME280;24967;51.154;13.812;2022-12-11T08:02:35;98851.19;;;-1.49;81.41
39267;BME280;24967;51.154;13.812;2022-12-11T08:05:02;98861.47;;;-1.76;81.83
39267;BME280;24967;51.154;13.812;2022-12-11T08:07:32;98859.28;;;-1.53;81.13
39267;BME280;24967;51.154;13.812;2022-12-11T08:09:58;98851.09;;;-1.47;80.25
39267;BME280;24967;51.154;13.812;2022-12-11T08:12:25;98848.16;;;-1.27;80.28
39267;BME280;24967;51.154;13.812;2022-12-11T08:14:51;98856.44;;;-1.20;79.59
39267;BME280;24967;51.154;13.812;2022-12-11T08:17:17;98846.25;;;-1.25;80.00
39267;BME280;24967;51.154;13.812;2022-12-11T08:19:44;98855.28;;;-1.30;80.54
39267;BME280;24967;51.154;13.812;2022-12-11T08:22:10;98848.50;;;-1.47;80.26
39267;BME280;24967;51.154;13.812;2022-12-11T08:24:39;98850.81;;;-1.28;80.17
39267;BME280;24967;51.154;13.812;2022-12-11T08:27:06;98838.53;;;-1.12;79.66
39267;BME280;24967;51.154;13.812;2022-12-11T08:29:32;98851.09;;;-1.19;80.13
39267;BME280;24967;51.154;13.812;2022-12-11T08:31:59;98855.16;;;-1.57;80.58
39267;BME280;24967;51.154;13.812;2022-12-11T08:34:25;98849.50;;;-1.50;80.55
39267;BME280;24967;51.154;13.812;2022-12-11T08:36:52;98841.50;;;-1.47;80.88
39267;BME280;24967;51.154;13.812;2022-12-11T08:39:18;98850.75;;;-1.27;80.02
39267;BME280;24967;51.154;13.812;2022-12-11T08:41:46;98844.28;;;-1.21;80.27
39267;BME280;24967;51.154;13.812;2022-12-11T08:44:12;98841.13;;;-1.41;80.16
39267;BME280;24967;51.154;13.812;2022-12-11T08:46:38;98840.09;;;-1.52;80.10
39267;BME280;24967;51.154;13.812;2022-12-11T08:49:05;98841.06;;;-1.39;79.60
39267;BME280;24967;51.154;13.812;2022-12-11T08:51:31;98843.34;;;-1.49;79.76
39267;BME280;24967;51.154;13.812;2022-12-11T08:53:58;98838.16;;;-1.49;79.41
39267;BME280;24967;51.154;13.812;2022-12-11T08:56:25;98840.22;;;-1.98;79.98
39267;BME280;24967;51.154;13.812;2022-12-11T08:58:53;98846.44;;;-2.01;80.38
39267;BME280;24967;51.154;13.812;2022-12-11T09:01:20;98838.66;;;-1.87;80.31
39267;BME280;24967;51.154;13.812;2022-12-11T09:03:47;98842.91;;;-1.41;79.34
39267;BME280;24967;51.154;13.812;2022-12-11T09:06:14;98849.94;;;-1.57;80.44
39267;BME280;24967;51.154;13.812;2022-12-11T09:08:41;98845.22;;;-1.65;80.30
39267;BME280;24967;51.154;13.812;2022-12-11T09:11:09;98848.75;;;-1.66;80.57
39267;BME280;24967;51.154;13.812;2022-12-11T09:13:35;98845.97;;;-1.49;79.98
39267;BME280;24967;51.154;13.812;2022-12-11T09:16:04;98844.56;;;-1.69;80.00
39267;BME280;24967;51.154;13.812;2022-12-11T09:18:30;98837.56;;;-1.68;80.38
39267;BME280;24967;51.154;13.812;2022-12-11T09:20:57;98849.03;;;-1.56;79.35
39267;BME280;24967;51.154;13.812;2022-12-11T09:23:24;98843.66;;;-1.39;79.16
39267;BME280;24967;51.154;13.812;2022-12-11T09:25:51;98835.28;;;-1.44;79.09
39267;BME280;24967;51.154;13.812;2022-12-11T09:28:17;98831.84;;;-1.45;79.07
39267;BME280;24967;51.154;13.812;2022-12-11T09:30:44;98836.09;;;-1.72;79.56
39267;BME280;24967;51.154;13.812;2022-12-11T09:33:12;98829.66;;;-1.67;80.38
39267;BME280;24967;51.154;13.812;2022-12-11T09:35:38;98822.69;;;-1.66;79.26
39267;BME280;24967;51.154;13.812;2022-12-11T09:38:05;98822.47;;;-1.77;79.87
39267;BME280;24967;51.154;13.812;2022-12-11T09:40:31;98821.00;;;-1.67;79.68
39267;BME280;24967;51.154;13.812;2022-12-11T09:42:58;98820.66;;;-1.47;79.43
39267;BME280;24967;51.154;13.812;2022-12-11T09:45:28;98824.38;;;-1.36;78.57
39267;BME280;24967;51.154;13.812;2022-12-11T09:47:55;98839.94;;;-1.35;78.50
39267;BME280;24967;51.154;13.812;2022-12-11T09:50:23;98831.63;;;-0.99;78.07
39267;BME280;24967;51.154;13.812;2022-12-11T09:52:53;98831.06;;;-1.18;77.78
39267;BME280;24967;51.154;13.812;2022-12-11T09:55:23;98835.28;;;-1.30;78.02
39267;BME280;24967;51.154;13.812;2022-12-11T09:57:52;98834.16;;;-1.26;77.75
39267;BME280;24967;51.154;13.812;2022-12-11T10:00:23;98825.59;;;-1.13;77.79
39267;BME280;24967;51.154;13.812;2022-12-11T10:02:58;98830.59;;;-1.10;77.51
39267;BME280;24967;51.154;13.812;2022-12-11T10:05:30;98832.00;;;-1.05;77.45
39267;BME280;24967;51.154;13.812;2022-12-11T10:08:02;98827.72;;;-1.06;77.24
39267;BME280;24967;51.154;13.812;2022-12-11T10:10:33;98822.41;;;-1.62;78.70
39267;BME280;24967;51.154;13.812;2022-12-11T10:13:03;98822.78;;;-1.68;78.38
39267;BME280;24967;51.154;13.812;2022-12-11T10:15:34;98815.53;;;-1.63;78.78
39267;BME280;24967;51.154;13.812;2022-12-11T10:18:02;98816.44;;;-1.49;79.05
39267;BME280;24967;51.154;13.812;2022-12-11T10:20:33;98811.44;;;-1.24;78.10
39267;BME280;24967;51.154;13.812;2022-12-11T10:23:04;98810.31;;;-1.05;77.23
39267;BME280;24967;51.154;13.812;2022-12-11T10:25:31;98810.31;;;-1.34;77.59
39267;BME280;24967;51.154;13.812;2022-12-11T10:28:04;98799.91;;;-1.48;77.86
39267;BME280;24967;51.154;13.812;2022-12-11T10:30:34;98796.44;;;-1.34;78.51
39267;BME280;24967;51.154;13.812;2022-12-11T10:33:03;98796.56;;;-1.36;78.72
39267;BME280;24967;51.154;13.812;2022-12-11T10:35:35;98789.06;;;-1.13;78.50
39267;BME280;24967;51.154;13.812;2022-12-11T10:38:14;98794.38;;;-1.15;78.07
39267;BME280;24967;51.154;13.812;2022-12-11T10:40:42;98795.31;;;-1.30;77.83
39267;BME280;24967;51.154;13.812;2022-12-11T10:43:08;98803.06;;;-1.43;78.19
39267;BME280;24967;51.154;13.812;2022-12-11T10:45:35;98797.38;;;-1.35;78.40
39267;BME280;24967;51.154;13.812;2022-12-11T10:48:02;98797.00;;;-1.29;78.65
39267;BME280;24967;51.154;13.812;2022-12-11T10:50:28;98793.81;;;-1.06;77.76
39267;BME280;24967;51.154;13.812;2022-12-11T10:52:56;98796.81;;;-1.55;78.58
39267;BME280;24967;51.154;13.812;2022-12-11T10:55:23;98799.16;;;-1.50;78.65
39267;BME280;24967;51.154;13.812;2022-12-11T10:57:54;98789.44;;;-1.34;78.58
39267;BME280;24967;51.154;13.812;2022-12-11T11:00:29;98798.56;;;-1.70;79.28
39267;BME280;24967;51.154;13.812;2022-12-11T11:02:56;98790.56;;;-1.52;79.16
39267;BME280;24967;51.154;13.812;2022-12-11T11:05:26;98786.56;;;-1.58;78.86
39267;BME280;24967;51.154;13.812;2022-12-11T11:08:02;98770.84;;;-1.56;79.00
39267;BME280;24967;51.154;13.812;2022-12-11T11:10:28;98773.72;;;-1.47;78.52
39267;BME280;24967;51.154;13.812;2022-12-11T11:12:59;98779.00;;;-1.20;78.17
39267;BME280;24967;51.154;13.812;2022-12-11T11:15:27;98770.47;;;-1.50;78.63
39267;BME280;24967;51.154;13.812;2022-12-11T11:17:55;98766.53;;;-1.57;79.57
39267;BME280;24967;51.154;13.812;2022-12-11T11:20:22;98771.03;;;-1.59;79.66
39267;BME280;24967;51.154;13.812;2022-12-11T11:22:49;98763.50;;;-1.78;79.42
39267;BME280;24967;51.154;13.812;2022-12-11T11:25:19;98761.31;;;-1.57;79.80
39267;BME280;24967;51.154;13.812;2022-12-11T11:27:50;98762.66;;;-1.36;79.19
39267;BME280;24967;51.154;13.812;2022-12-11T11:30:19;98770.28;;;-1.33;78.58
39267;BME280;24967;51.154;13.812;2022-12-11T11:32:45;98760.00;;;-1.22;78.51
39267;BME280;24967;51.154;13.812;2022-12-11T11:35:16;98758.22;;;-1.21;78.93
39267;BME280;24967;51.154;13.812;2022-12-11T11:37:44;98750.75;;;-0.99;78.41
39267;BME280;24967;51.154;13.812;2022-12-11T11:40:12;98758.94;;;-0.90;78.35
39267;BME280;24967;51.154;13.812;2022-12-11T11:42:44;98751.16;;;-0.78;78.24
39267;BME280;24967;51.154;13.812;2022-12-11T11:45:13;98750.53;;;-0.81;78.02
39267;BME280;24967;51.154;13.812;2022-12-11T11:47:42;98739.97;;;-0.80;77.50
39267;BME280;24967;51.154;13.812;2022-12-11T11:50:15;98741.63;;;-0.79;77.24
39267;BME280;24967;51.154;13.812;2022-12-11T11:52:45;98743.38;;;-0.92;77.52
39267;BME280;24967;51.154;13.812;2022-12-11T11:55:14;98753.31;;;-1.11;78.09
39267;BME280;24967;51.154;13.812;2022-12-11T11:57:41;98746.31;;;-1.11;78.10
39267;BME280;24967;51.154;13.812;2022-12-11T12:00:16;98738.31;;;-1.22;79.18
39267;BME280;24967;51.154;13.812;2022-12-11T12:02:42;98740.31;;;-0.99;79.08
39267;BME280;24967;51.154;13.812;2022-12-11T12:05:11;98730.88;;;-0.87;78.51
39267;BME280;24967;51.154;13.812;2022-12-11T12:07:39;98720.84;;;-1.07;77.75
39267;BME280;24967;51.154;13.812;2022-12-11T12:10:13;98731.16;;;-1.33;79.06
39267;BME280;24967;51.154;13.812;2022-12-11T12:12:42;98728.19;;;-1.27;79.63
39267;BME280;24967;51.154;13.812;2022-12-11T12:17:55;98726.78;;;-1.32;79.23
39267;BME280;24967;51.154;13.812;2022-12-11T12:20:34;98714.16;;;-1.53;80.31
39267;BME280;24967;51.154;13.812;2022-12-11T12:23:13;98716.66;;;-1.66;81.17
39267;BME280;24967;51.154;13.812;2022-12-11T12:25:48;98719.81;;;-1.61;80.78
39267;BME280;24967;51.154;13.812;2022-12-11T12:28:20;98720.75;;;-1.33;80.33
39267;BME280;24967;51.154;13.812;2022-12-11T12:30:50;98708.03;;;-1.25;80.10
39267;BME280;24967;51.154;13.812;2022-12-11T12:33:24;98721.28;;;-1.28;79.81
39267;BME280;24967;51.154;13.812;2022-12-11T12:35:55;98724.25;;;-1.20;79.36
39267;BME280;24967;51.154;13.812;2022-12-11T12:38:26;98725.19;;;-1.35;78.87
39267;BME280;24967;51.154;13.812;2022-12-11T12:41:00;98724.19;;;-1.47;79.27
39267;BME280;24967;51.154;13.812;2022-12-11T12:43:32;98726.72;;;-1.45;79.71
39267;BME280;24967;51.154;13.812;2022-12-11T12:46:03;98725.78;;;-1.44;79.14
39267;BME280;24967;51.154;13.812;2022-12-11T12:48:32;98723.94;;;-1.56;80.23
39267;BME280;24967;51.154;13.812;2022-12-11T12:50:59;98719.03;;;-1.34;79.56
39267;BME280;24967;51.154;13.812;2022-12-11T12:53:26;98722.03;;;-1.26;79.37
39267;BME280;24967;51.154;13.812;2022-12-11T12:55:53;98717.19;;;-1.32;79.67
39267;BME280;24967;51.154;13.812;2022-12-11T12:58:24;98709.38;;;-1.32;79.99
39267;BME280;24967;51.154;13.812;2022-12-11T13:00:51;98703.91;;;-1.42;79.65
39267;BME280;24967;51.154;13.812;2022-12-11T13:03:19;98708.78;;;-1.23;79.41
39267;BME280;24967;51.154;13.812;2022-12-11T13:05:55;98705.38;;;-1.38;79.98
39267;BME280;24967;51.154;13.812;2022-12-11T13:08:23;98698.75;;;-1.29;79.34